Metar z pełnej godziny Komunikat METAR ze strony awiacja.imgw.pl Metar G00 EPPO METAR EPPO 220600Z 27011KT 2400 -DZ BR OVC003 02/02 Q1027 =